キャンペーン!キャンペーン!!

LUXURY FLIGHT

080-7560-1817

羽田空港本店:東京都大田区羽田空港3-3-2
第1旅客ターミナル5階
営業時間:10:00~20:00 定休日:年中無休
電話番号:080-7560-1817

セントレア店:愛知県常滑市セントレア1-1
FLIGHT OF DREAMS FLIGHT PARK
営業時間:10:00~20:00 定休日:年中無休
電話番号:080-4945-5666

lv

キャンペーン!キャンペーン!!

STAFF BLOG

2020/01/05 キャンペーン!キャンペーン!!

セントレアより、おはようございまーーーーーーす!!

 

RJGG 050430Z 35023KT 9999 FEW030 09/M04 Q1023 NOSIG

 

昨年2019年12月29日(日)まで、セントレア店で開催しておりました「747 Dreamlifter 就航記念キャンペーン」

数多くのお客様にご参加くださり、誠にありがとうございました!

 

本日は、セントレア店大常連のNさま!

 

これまで、787と共に、操縦の腕を磨かれて参りましたが、

Dreamlifterキャンペーン期間中には、747 Dreamlifterにも挑戦されました!

 

大きく重たい747は、787と比べ慣性が大きく

787と同じ感覚で操縦桿を操作していると、なかなか安定させることが難しいっっ!

 

特に、前回の787のフライトで課題だったピッチコントロールには苦労されているご様子でした。

 

 

nsama1

しかし、さすがNさま!決して諦めません!!

 

こう操作したら、飛行機の姿勢がどうなるのか、

先の先を読み、徐々に操作の手数が少なく、量が小さくなっていき、ピッチが安定!!姿勢も安定!

 

旋回中の高度と傾きのキープもスイスイ~~~~~と出来るようになりました!

 

nsama2

 

後日は、なんと奥さまも747をご体験くださいました!

 

選んだ空港は、ペインフィールド!

シアトルの街を眺めながら、微笑みながら楽しまれているご様子でした。

 

そんな奥さまの操縦を、後ろからあたたかな笑顔で見守られながらアドバイスを送られていたNさま

 

キャンペーンを開催して、本当によかったと思える瞬間でございました

いつもご利用くださり、誠にありがとうございます。

 

 

nsama3

 

改めまして、「747就航記念キャンペーン」にご参加いただいた全ての皆さまに感謝申し上げます!

 

2019年の最後の最後まで、お祭り騒ぎの我々スタッフ以上に

キャンペーンにご参加いただいたお客さまの方が逆に盛り上げてくださるという

あたたかーくて、最高のカタチとなりました!!!

 

本当にありがとうございます

 

なお、「2020年 初飛びまつり」キャンペーンは、

セントレア店では1月1日(水)から、羽田本店は1月4日(土)から、

1月10日(金)までの開催です!!!

是非とも、ご家族・ご親戚・ご友人、皆さまお誘いあわせの上、ご参加いただけましたら幸いです!!

 

 

いつもブログをお読みくださり、誠にありがとうございます。

 

 

「感謝」

TOP